アンマン の空港の天気 - METARとTAF

クィーンアリア国際空港 ( OJAI / AMM ) - ヨルダン アンマン
飛行場実況気象(Metar)
観測時間01/24 14:00 EET (01/24 12:00 UTC)
風向・風速西 9m/s
視程7000m
天気現象
全天の4割程度の雲 雲底高度 610m
全天の4割程度の雲 雲底高度 760m
気温7℃
湿度81%
気圧1016hPa
METAROJAI 241200Z 27017KT 7000 SCT020 SCT025 07/04 Q1016 NOSIG
過去の天気等 Google飛行場航空写真 Wunderground天気予報

過去48時間のMETAR

飛行場予報(TAF)
発表時間: 1/24 12:53 EET (1/24 10:53 UTC)
予報対象時間: 24日14時 EET ~ 25日20時 EET
風向・風速西 7m/s
視程5000m
天気現象弱い雨 もや
全天の4割程度の雲 雲底高度 610m
全天の8割程度の雲 雲底高度 760m
24日17時 EET ~ 24日19時 EET に徐々に
視程4000m
天気現象もや
少しの雲 雲底高度 610m
全天の4割程度の雲 雲底高度 760m
24日20時 EET から 確率 40% で
風向・風速不定 1m/s
視程1500m
24日23時 EET から 確率 40% で
視程500m
天気現象
25日10時 EET ~ 25日12時 EET に徐々に
視程5000m
天気現象煙霧
少しの雲 雲底高度 1070m
TAF OJAI 241053Z 2412/2518 28014KT 5000 -RA BR SCT020 BKN025
BECMG 2415/2417 4000 BR FEW020 SCT025
PROB40 2418/2508 VRB01KT 1500
PROB40 2421/2507 0500 FG
BECMG 2508/2510 5000 HZ FEW035